METAR AND TAF INFORMATION
METAR FOR VECC
ADDS - METARS form results

(0842 UTC 27 April 2018)
Data provider http://aviationweather.gov/adds/metars/
 
METAR text: VECC 270830Z 11007KT 4500 HZ FEW100 34/22 Q1007 NOSIG
Conditions at: VECC (CALCUTTA/DUM DUM, IN) observed 0830 UTC 27 April 2018
Temperature: 34.0°C (93°F)
Dewpoint: 22.0°C (72°F) [RH = 50%]
Pressure (altimeter): 29.73 inches Hg (1007.0 mb)
Winds: from the ESE (110 degrees) at 8 MPH (7 knots; 3.6 m/s)
Visibility: 2.80 miles (4.51 km)
Ceiling: at least 12,000 feet AGL
Clouds: few clouds at 10000 feet AGL
Weather: HZ  (haze)

METAR text: VECC 270800Z 11007KT 4500 HZ FEW100 34/21 Q1008 NOSIG
Conditions at: VECC (CALCUTTA/DUM DUM, IN) observed 0800 UTC 27 April 2018
Temperature: 34.0°C (93°F)
Dewpoint: 21.0°C (70°F) [RH = 47%]
Pressure (altimeter): 29.76 inches Hg (1008.0 mb)
Winds: from the ESE (110 degrees) at 8 MPH (7 knots; 3.6 m/s)
Visibility: 2.80 miles (4.51 km)
Ceiling: at least 12,000 feet AGL
Clouds: few clouds at 10000 feet AGL
Weather: HZ  (haze)

Forecast for: VECC (CALCUTTA/DUM DUM, IN)
Text: TAF VECC 270500Z 2706/2812 18008KT 4000 HZ FEW020 SCT100
Forecast period: 0600 to 1800 UTC 27 April 2018
Forecast type: FROM: standard forecast or significant change
Winds: from the S (180 degrees) at 9 MPH (8 knots; 4.2 m/s)
Visibility: 2.49 miles (4.01 km)
Clouds: few clouds at 2000 feet AGL
scattered clouds at 10000 feet AGL
Weather: HZ  (haze)
Forecast for: VECC (CALCUTTA/DUM DUM, IN)
Text: TAF VECC 270500Z 2706/2812 18008KT 4000 HZ FEW020 SCT100
Forecast period: 0600 to 1800 UTC 27 April 2018
Forecast type: FROM: standard forecast or significant change
Winds: from the S (180 degrees) at 9 MPH (8 knots; 4.2 m/s)
Visibility: 2.49 miles (4.01 km)
Clouds: few clouds at 2000 feet AGL
scattered clouds at 10000 feet AGL
Weather: HZ  (haze)
Forecast for: VECC (CALCUTTA/DUM DUM, IN)
Text: TAF VECC 270500Z 2706/2812 18008KT 4000 HZ FEW020 SCT100
Forecast period: 1200 to 1600 UTC 27 April 2018
Forecast type: TEMPORARY: The following changes expected for less than half the time period
Winds: from the NW (320 degrees) at 23 MPH (20 knots; 10.4 m/s)
gusting to 34 MPH (30 knots; 15.6 m/s)
Ceiling: 9000 feet AGL
Clouds: scattered clouds at 1500 feet AGL
few clouds at 2500 feet AGL
overcast cloud deck at 9000 feet AGL
Weather: no significant weather forecast for this period
Forecast for: VECC (CALCUTTA/DUM DUM, IN)
Text: TAF VECC 270500Z 2706/2812 18008KT 4000 HZ FEW020 SCT100
Forecast period: 1200 to 1600 UTC 27 April 2018
Forecast type: TEMPORARY: The following changes expected for less than half the time period
Winds: from the NW (320 degrees) at 23 MPH (20 knots; 10.4 m/s)
gusting to 34 MPH (30 knots; 15.6 m/s)
Ceiling: 9000 feet AGL
Clouds: scattered clouds at 1500 feet AGL
few clouds at 2500 feet AGL
overcast cloud deck at 9000 feet AGL
Weather: no significant weather forecast for this period
Forecast for: VECC (CALCUTTA/DUM DUM, IN)
Text: TAF VECC 270500Z 2706/2812 18008KT 4000 HZ FEW020 SCT100
Forecast period: 1800 UTC 27 April 2018 to 0200 UTC 28 April 2018
Forecast type: BECOMING: Conditions expected to become as follows by 2000 UTC 27 April 2018
Winds: from the S (180 degrees) at 9 MPH (8 knots; 4.2 m/s)
Visibility: 1.62 miles (2.61 km)
Clouds: few clouds at 2000 feet AGL
scattered clouds at 10000 feet AGL
Weather: HZ  (haze)
Forecast for: VECC (CALCUTTA/DUM DUM, IN)
Text: TAF VECC 270500Z 2706/2812 18008KT 4000 HZ FEW020 SCT100
Forecast period: 1800 UTC 27 April 2018 to 0200 UTC 28 April 2018
Forecast type: BECOMING: Conditions expected to become as follows by 2000 UTC 27 April 2018
Winds: from the S (180 degrees) at 9 MPH (8 knots; 4.2 m/s)
Visibility: 1.62 miles (2.61 km)
Clouds: few clouds at 2000 feet AGL
scattered clouds at 10000 feet AGL
Weather: HZ  (haze)
Forecast for: VECC (CALCUTTA/DUM DUM, IN)
Text: TAF VECC 270500Z 2706/2812 18008KT 4000 HZ FEW020 SCT100
Forecast period: 0200 to 1200 UTC 28 April 2018
Forecast type: BECOMING: Conditions expected to become as follows by 0400 UTC 28 April 2018
Winds: from the S (180 degrees) at 9 MPH (8 knots; 4.2 m/s)
Visibility: 2.49 miles (4.01 km)
Clouds: few clouds at 2000 feet AGL
scattered clouds at 10000 feet AGL
Weather: HZ  (haze)
Forecast for: VECC (CALCUTTA/DUM DUM, IN)
Text: TAF VECC 270500Z 2706/2812 18008KT 4000 HZ FEW020 SCT100
Forecast period: 0200 to 1200 UTC 28 April 2018
Forecast type: BECOMING: Conditions expected to become as follows by 0400 UTC 28 April 2018
Winds: from the S (180 degrees) at 9 MPH (8 knots; 4.2 m/s)
Visibility: 2.49 miles (4.01 km)
Clouds: few clouds at 2000 feet AGL
scattered clouds at 10000 feet AGL
Weather: HZ  (haze)

 AIRPORT MAP

 RUNWAY INFORMATION
Runway 01L Runway length 7871 ft Runway width 150 ft
Runway elevation 19 ft Runway displaced threshold 0 ft Runway heading 6
Runway 19R Runway length 7871 ft Runway width 150 ft
Runway elevation 19 ft Runway displaced threshold 0 ft Runway heading 186
Runway 01R Runway length 11900 ft Runway width 150 ft
Runway elevation 20 ft Runway displaced threshold 0 ft Runway heading 6
Runway 19L Runway length 11900 ft Runway width 150 ft
Runway elevation 19 ft Runway displaced threshold 1390 ft Runway heading 186

 AIRPORT FREQUENCIES
Type A/G Name KOLKATA RD Frequency 127.3 MHZ
Type ACC Name KOLKATA CO Frequency 119.3 MHZ
Type APP Name KOLKATA AP Frequency 127.9 MHZ
Type APP CONTRO Name KOLKATA CO Frequency 132.45 MHZ
Type ATIS Name ATIS Frequency 126.4 MHZ
Type GND Name KOLKATA GN Frequency 121.9 MHZ
Type RADAR Name Feeder ARE Frequency 127.3 MHZ
Type TWR Name KOLKATA TW Frequency 118.1 MHZ

 AIRPORT NEAR NAVIGATION AIDS
Type VOR-DME Name Kolkata Frequency 112500 KHZ
Type NDB Name Kolkata Frequency 385 KHZ



Powered by Virtual Airlines Manager [v2.6.2]